sensor_id;sensor_type;location;lat;lon;timestamp;pressure;altitude;pressure_sealevel;temperature;humidity
59194;BME280;44967;48.598;15.650;2022-10-31T00:01:18;98718.56;;;15.67;59.97
59194;BME280;44967;48.598;15.650;2022-10-31T00:03:44;98713.41;;;15.62;59.84
59194;BME280;44967;48.598;15.650;2022-10-31T00:06:10;98724.91;;;15.71;60.00
59194;BME280;44967;48.598;15.650;2022-10-31T00:08:36;98713.50;;;15.73;60.11
59194;BME280;44967;48.598;15.650;2022-10-31T00:11:01;98715.56;;;15.83;58.94
59194;BME280;44967;48.598;15.650;2022-10-31T00:13:27;98724.25;;;15.89;59.26
59194;BME280;44967;48.598;15.650;2022-10-31T00:15:53;98708.88;;;15.84;59.31
59194;BME280;44967;48.598;15.650;2022-10-31T00:18:19;98706.47;;;15.79;59.70
59194;BME280;44967;48.598;15.650;2022-10-31T00:20:45;98727.00;;;15.89;59.32
59194;BME280;44967;48.598;15.650;2022-10-31T00:23:11;98704.88;;;15.78;59.43
59194;BME280;44967;48.598;15.650;2022-10-31T00:25:38;98736.59;;;16.06;59.23
59194;BME280;44967;48.598;15.650;2022-10-31T00:28:06;98733.25;;;15.86;59.71
59194;BME280;44967;48.598;15.650;2022-10-31T00:30:33;98733.22;;;15.82;59.47
59194;BME280;44967;48.598;15.650;2022-10-31T00:32:59;98736.72;;;15.75;59.95
59194;BME280;44967;48.598;15.650;2022-10-31T00:35:25;98724.47;;;15.69;59.71
59194;BME280;44967;48.598;15.650;2022-10-31T00:37:52;98714.63;;;15.65;60.25
59194;BME280;44967;48.598;15.650;2022-10-31T00:40:18;98714.22;;;15.62;60.01
59194;BME280;44967;48.598;15.650;2022-10-31T00:42:44;98732.69;;;15.62;60.30
59194;BME280;44967;48.598;15.650;2022-10-31T00:45:10;98739.03;;;15.66;60.23
59194;BME280;44967;48.598;15.650;2022-10-31T00:47:36;98721.56;;;15.47;60.10
59194;BME280;44967;48.598;15.650;2022-10-31T00:50:04;98727.03;;;15.44;60.95
59194;BME280;44967;48.598;15.650;2022-10-31T00:52:29;98721.94;;;15.46;61.04
59194;BME280;44967;48.598;15.650;2022-10-31T00:54:55;98720.41;;;15.48;60.42
59194;BME280;44967;48.598;15.650;2022-10-31T00:57:21;98738.88;;;15.52;60.64
59194;BME280;44967;48.598;15.650;2022-10-31T00:59:46;98727.41;;;15.42;60.00
59194;BME280;44967;48.598;15.650;2022-10-31T01:02:12;98711.63;;;15.39;60.17
59194;BME280;44967;48.598;15.650;2022-10-31T01:04:37;98737.34;;;15.54;60.58
59194;BME280;44967;48.598;15.650;2022-10-31T01:07:03;98714.06;;;15.44;59.78
59194;BME280;44967;48.598;15.650;2022-10-31T01:09:29;98726.56;;;15.38;59.94
59194;BME280;44967;48.598;15.650;2022-10-31T01:11:54;98730.16;;;15.42;60.36
59194;BME280;44967;48.598;15.650;2022-10-31T01:14:20;98734.06;;;15.38;60.48
59194;BME280;44967;48.598;15.650;2022-10-31T01:16:46;98708.81;;;15.28;59.41
59194;BME280;44967;48.598;15.650;2022-10-31T01:19:12;98715.41;;;15.20;59.52
59194;BME280;44967;48.598;15.650;2022-10-31T01:21:37;98717.66;;;15.11;60.40
59194;BME280;44967;48.598;15.650;2022-10-31T01:24:03;98724.34;;;15.10;60.15
59194;BME280;44967;48.598;15.650;2022-10-31T01:26:31;98719.75;;;15.21;60.35
59194;BME280;44967;48.598;15.650;2022-10-31T01:29:03;98709.91;;;15.20;59.27
59194;BME280;44967;48.598;15.650;2022-10-31T01:31:31;98728.84;;;15.29;60.12
59194;BME280;44967;48.598;15.650;2022-10-31T01:33:58;98722.22;;;15.33;58.93
59194;BME280;44967;48.598;15.650;2022-10-31T01:36:27;98714.63;;;15.19;60.27
59194;BME280;44967;48.598;15.650;2022-10-31T01:38:56;98707.16;;;15.20;59.47
59194;BME280;44967;48.598;15.650;2022-10-31T01:41:27;98703.53;;;15.12;59.50
59194;BME280;44967;48.598;15.650;2022-10-31T01:43:55;98701.50;;;15.05;58.58
59194;BME280;44967;48.598;15.650;2022-10-31T01:46:27;98703.75;;;14.96;59.52
59194;BME280;44967;48.598;15.650;2022-10-31T01:48:55;98705.03;;;15.06;60.41
59194;BME280;44967;48.598;15.650;2022-10-31T01:51:26;98712.13;;;15.07;60.38
59194;BME280;44967;48.598;15.650;2022-10-31T01:53:55;98703.41;;;15.01;59.69
59194;BME280;44967;48.598;15.650;2022-10-31T01:56:23;98706.16;;;15.01;60.38
59194;BME280;44967;48.598;15.650;2022-10-31T01:58:50;98703.81;;;15.03;59.78
59194;BME280;44967;48.598;15.650;2022-10-31T02:01:17;98686.59;;;15.06;59.90
59194;BME280;44967;48.598;15.650;2022-10-31T02:03:44;98679.09;;;15.07;59.48
59194;BME280;44967;48.598;15.650;2022-10-31T02:06:27;98689.38;;;15.10;60.21
59194;BME280;44967;48.598;15.650;2022-10-31T02:08:57;98678.25;;;14.99;59.70
59194;BME280;44967;48.598;15.650;2022-10-31T02:11:25;98682.34;;;15.13;59.59
59194;BME280;44967;48.598;15.650;2022-10-31T02:13:52;98680.69;;;15.04;59.79
59194;BME280;44967;48.598;15.650;2022-10-31T02:16:18;98675.16;;;15.01;60.50
59194;BME280;44967;48.598;15.650;2022-10-31T02:18:44;98692.88;;;15.07;60.46
59194;BME280;44967;48.598;15.650;2022-10-31T02:24:20;98704.31;;;15.09;60.79
59194;BME280;44967;48.598;15.650;2022-10-31T02:37:21;98690.41;;;14.64;59.95
59194;BME280;44967;48.598;15.650;2022-10-31T02:40:22;98702.50;;;14.86;59.10
59194;BME280;44967;48.598;15.650;2022-10-31T02:48:17;98693.06;;;14.57;59.69
59194;BME280;44967;48.598;15.650;2022-10-31T02:50:50;98687.16;;;14.54;59.34
59194;BME280;44967;48.598;15.650;2022-10-31T02:53:17;98701.41;;;14.64;59.48
59194;BME280;44967;48.598;15.650;2022-10-31T02:55:59;98715.50;;;14.59;58.80
59194;BME280;44967;48.598;15.650;2022-10-31T02:58:29;98692.16;;;14.45;58.55
59194;BME280;44967;48.598;15.650;2022-10-31T03:06:35;98706.41;;;14.54;57.46
59194;BME280;44967;48.598;15.650;2022-10-31T03:09:11;98719.31;;;14.50;57.71
59194;BME280;44967;48.598;15.650;2022-10-31T03:12:07;98703.50;;;14.44;58.11
59194;BME280;44967;48.598;15.650;2022-10-31T03:14:49;98701.00;;;14.31;56.62
59194;BME280;44967;48.598;15.650;2022-10-31T03:17:28;98705.72;;;14.31;57.74
59194;BME280;44967;48.598;15.650;2022-10-31T03:19:58;98694.47;;;14.12;57.07
59194;BME280;44967;48.598;15.650;2022-10-31T03:22:29;98706.50;;;14.04;57.87
59194;BME280;44967;48.598;15.650;2022-10-31T03:24:57;98721.94;;;14.12;58.67
59194;BME280;44967;48.598;15.650;2022-10-31T03:27:26;98716.28;;;14.02;57.65
59194;BME280;44967;48.598;15.650;2022-10-31T03:29:57;98726.75;;;13.92;58.32
59194;BME280;44967;48.598;15.650;2022-10-31T03:32:29;98700.94;;;13.47;57.79
59194;BME280;44967;48.598;15.650;2022-10-31T03:34:59;98721.28;;;13.46;58.02
59194;BME280;44967;48.598;15.650;2022-10-31T03:37:29;98712.63;;;13.43;58.53
59194;BME280;44967;48.598;15.650;2022-10-31T03:40:00;98727.09;;;13.44;58.81
59194;BME280;44967;48.598;15.650;2022-10-31T03:42:30;98729.84;;;13.44;58.50
59194;BME280;44967;48.598;15.650;2022-10-31T03:45:01;98706.81;;;13.45;58.78
59194;BME280;44967;48.598;15.650;2022-10-31T03:47:30;98706.47;;;13.27;57.45
59194;BME280;44967;48.598;15.650;2022-10-31T03:49:56;98718.66;;;13.29;57.36
59194;BME280;44967;48.598;15.650;2022-10-31T03:52:45;98747.28;;;13.32;57.26
59194;BME280;44967;48.598;15.650;2022-10-31T03:55:21;98743.69;;;13.28;58.42
59194;BME280;44967;48.598;15.650;2022-10-31T03:58:08;98739.50;;;13.34;58.05
59194;BME280;44967;48.598;15.650;2022-10-31T04:00:35;98726.81;;;13.26;58.60
59194;BME280;44967;48.598;15.650;2022-10-31T04:03:08;98719.78;;;12.85;58.00
59194;BME280;44967;48.598;15.650;2022-10-31T04:05:36;98715.31;;;12.97;58.72
59194;BME280;44967;48.598;15.650;2022-10-31T04:08:05;98715.38;;;13.00;59.55
59194;BME280;44967;48.598;15.650;2022-10-31T04:10:34;98715.41;;;13.24;58.84
59194;BME280;44967;48.598;15.650;2022-10-31T04:13:07;98712.66;;;13.24;58.99
59194;BME280;44967;48.598;15.650;2022-10-31T04:15:37;98726.69;;;12.99;57.75
59194;BME280;44967;48.598;15.650;2022-10-31T04:18:04;98722.03;;;12.80;58.93
59194;BME280;44967;48.598;15.650;2022-10-31T04:20:33;98733.94;;;12.87;59.43
59194;BME280;44967;48.598;15.650;2022-10-31T04:23:00;98715.09;;;13.06;58.89
59194;BME280;44967;48.598;15.650;2022-10-31T04:25:26;98713.75;;;13.19;58.12
59194;BME280;44967;48.598;15.650;2022-10-31T04:27:52;98708.59;;;12.94;60.47
59194;BME280;44967;48.598;15.650;2022-10-31T04:30:18;98715.97;;;12.90;60.25
59194;BME280;44967;48.598;15.650;2022-10-31T04:32:44;98719.16;;;12.92;59.69
59194;BME280;44967;48.598;15.650;2022-10-31T04:35:09;98708.19;;;12.92;59.44
59194;BME280;44967;48.598;15.650;2022-10-31T04:37:35;98719.78;;;12.85;60.28
59194;BME280;44967;48.598;15.650;2022-10-31T04:40:01;98722.81;;;13.00;59.57
59194;BME280;44967;48.598;15.650;2022-10-31T04:42:29;98706.41;;;13.03;58.05
59194;BME280;44967;48.598;15.650;2022-10-31T04:44:55;98715.09;;;13.06;59.49
59194;BME280;44967;48.598;15.650;2022-10-31T04:47:20;98721.72;;;13.05;58.44
59194;BME280;44967;48.598;15.650;2022-10-31T04:49:46;98710.84;;;12.88;59.57
59194;BME280;44967;48.598;15.650;2022-10-31T04:52:12;98724.28;;;12.94;59.87
59194;BME280;44967;48.598;15.650;2022-10-31T04:54:38;98748.00;;;13.06;59.84
59194;BME280;44967;48.598;15.650;2022-10-31T04:57:04;98730.09;;;12.92;59.45
59194;BME280;44967;48.598;15.650;2022-10-31T04:59:29;98723.13;;;12.95;59.97
59194;BME280;44967;48.598;15.650;2022-10-31T05:01:55;98751.81;;;13.01;59.51
59194;BME280;44967;48.598;15.650;2022-10-31T05:04:21;98726.56;;;12.92;59.72
59194;BME280;44967;48.598;15.650;2022-10-31T05:06:47;98741.16;;;12.96;60.94
59194;BME280;44967;48.598;15.650;2022-10-31T05:09:12;98725.28;;;12.66;60.83
59194;BME280;44967;48.598;15.650;2022-10-31T05:11:38;98734.97;;;12.79;60.63
59194;BME280;44967;48.598;15.650;2022-10-31T05:14:04;98726.63;;;12.95;60.87
59194;BME280;44967;48.598;15.650;2022-10-31T05:16:30;98734.16;;;12.98;60.73
59194;BME280;44967;48.598;15.650;2022-10-31T05:18:56;98750.91;;;13.16;60.88
59194;BME280;44967;48.598;15.650;2022-10-31T05:21:21;98734.84;;;12.95;60.85
59194;BME280;44967;48.598;15.650;2022-10-31T05:23:47;98724.28;;;12.94;61.25
59194;BME280;44967;48.598;15.650;2022-10-31T05:26:12;98722.16;;;13.07;60.00
59194;BME280;44967;48.598;15.650;2022-10-31T05:28:38;98734.66;;;13.27;60.61
59194;BME280;44967;48.598;15.650;2022-10-31T05:31:04;98732.78;;;13.32;59.47
59194;BME280;44967;48.598;15.650;2022-10-31T05:33:29;98739.06;;;13.32;60.67
59194;BME280;44967;48.598;15.650;2022-10-31T05:35:56;98732.72;;;13.28;60.55
59194;BME280;44967;48.598;15.650;2022-10-31T05:38:22;98734.66;;;13.27;59.97
59194;BME280;44967;48.598;15.650;2022-10-31T05:40:48;98729.78;;;13.17;60.29
59194;BME280;44967;48.598;15.650;2022-10-31T05:43:14;98738.63;;;13.30;59.87
59194;BME280;44967;48.598;15.650;2022-10-31T05:45:40;98751.38;;;13.19;60.93
59194;BME280;44967;48.598;15.650;2022-10-31T05:48:05;98733.47;;;13.05;60.68
59194;BME280;44967;48.598;15.650;2022-10-31T05:50:31;98733.75;;;13.00;59.43
59194;BME280;44967;48.598;15.650;2022-10-31T05:53:03;98729.38;;;12.95;61.24
59194;BME280;44967;48.598;15.650;2022-10-31T05:55:30;98757.06;;;13.10;60.25
59194;BME280;44967;48.598;15.650;2022-10-31T05:57:56;98750.88;;;13.13;60.11
59194;BME280;44967;48.598;15.650;2022-10-31T06:00:22;98761.25;;;13.23;60.58
59194;BME280;44967;48.598;15.650;2022-10-31T06:02:48;98740.91;;;13.05;60.76
59194;BME280;44967;48.598;15.650;2022-10-31T06:05:14;98735.56;;;13.12;59.79
59194;BME280;44967;48.598;15.650;2022-10-31T06:07:42;98750.06;;;13.12;61.02
59194;BME280;44967;48.598;15.650;2022-10-31T06:10:08;98744.59;;;13.12;60.03
59194;BME280;44967;48.598;15.650;2022-10-31T06:12:35;98748.13;;;13.13;61.01
59194;BME280;44967;48.598;15.650;2022-10-31T06:15:07;98752.81;;;12.93;60.95
59194;BME280;44967;48.598;15.650;2022-10-31T06:17:34;98748.50;;;13.11;60.50
59194;BME280;44967;48.598;15.650;2022-10-31T06:20:00;98762.13;;;13.08;60.50
59194;BME280;44967;48.598;15.650;2022-10-31T06:22:26;98775.72;;;13.43;60.58
59194;BME280;44967;48.598;15.650;2022-10-31T06:24:52;98764.47;;;13.29;60.50
59194;BME280;44967;48.598;15.650;2022-10-31T06:27:18;98766.44;;;13.28;60.80
59194;BME280;44967;48.598;15.650;2022-10-31T06:29:44;98759.66;;;13.22;60.54
59194;BME280;44967;48.598;15.650;2022-10-31T06:32:12;98764.53;;;13.09;60.14
59194;BME280;44967;48.598;15.650;2022-10-31T06:34:42;98764.47;;;13.29;60.78
59194;BME280;44967;48.598;15.650;2022-10-31T06:37:09;98774.16;;;13.23;59.99
59194;BME280;44967;48.598;15.650;2022-10-31T06:39:35;98758.63;;;13.30;60.68
59194;BME280;44967;48.598;15.650;2022-10-31T06:42:02;98784.59;;;13.56;59.31
59194;BME280;44967;48.598;15.650;2022-10-31T06:44:28;98769.00;;;13.41;60.25
59194;BME280;44967;48.598;15.650;2022-10-31T06:46:53;98754.38;;;13.33;60.03
59194;BME280;44967;48.598;15.650;2022-10-31T06:49:19;98751.38;;;13.42;59.57
59194;BME280;44967;48.598;15.650;2022-10-31T06:51:47;98763.09;;;13.39;60.30
59194;BME280;44967;48.598;15.650;2022-10-31T06:54:13;98780.13;;;13.48;59.99
59194;BME280;44967;48.598;15.650;2022-10-31T06:56:39;98776.13;;;13.65;60.23
59194;BME280;44967;48.598;15.650;2022-10-31T06:59:05;98784.97;;;13.78;59.82
59194;BME280;44967;48.598;15.650;2022-10-31T07:01:31;98800.16;;;13.95;59.33
59194;BME280;44967;48.598;15.650;2022-10-31T07:03:57;98790.53;;;13.82;60.22
59194;BME280;44967;48.598;15.650;2022-10-31T07:06:22;98795.31;;;13.89;60.00
59194;BME280;44967;48.598;15.650;2022-10-31T07:08:48;98787.97;;;13.93;59.27
59194;BME280;44967;48.598;15.650;2022-10-31T07:11:14;98773.31;;;13.85;58.97
59194;BME280;44967;48.598;15.650;2022-10-31T07:13:39;98796.72;;;13.79;59.99
59194;BME280;44967;48.598;15.650;2022-10-31T07:16:05;98784.97;;;13.78;60.11
59194;BME280;44967;48.598;15.650;2022-10-31T07:18:39;98805.22;;;13.93;59.68
59194;BME280;44967;48.598;15.650;2022-10-31T07:21:05;98804.84;;;13.95;59.44
59194;BME280;44967;48.598;15.650;2022-10-31T07:23:31;98810.63;;;13.90;60.23
59194;BME280;44967;48.598;15.650;2022-10-31T07:25:58;98784.72;;;13.87;60.30
59194;BME280;44967;48.598;15.650;2022-10-31T07:28:25;98799.84;;;14.01;58.67
59194;BME280;44967;48.598;15.650;2022-10-31T07:30:56;98787.78;;;13.82;58.50
59194;BME280;44967;48.598;15.650;2022-10-31T07:33:23;98800.75;;;13.85;59.67
59194;BME280;44967;48.598;15.650;2022-10-31T07:35:48;98790.81;;;13.77;60.39
59194;BME280;44967;48.598;15.650;2022-10-31T07:38:15;98798.34;;;13.80;59.33
59194;BME280;44967;48.598;15.650;2022-10-31T07:40:42;98793.63;;;13.80;59.51
59194;BME280;44967;48.598;15.650;2022-10-31T07:43:08;98800.09;;;13.92;59.02
59194;BME280;44967;48.598;15.650;2022-10-31T07:45:35;98797.41;;;13.95;59.48
59194;BME280;44967;48.598;15.650;2022-10-31T07:48:04;98795.25;;;14.08;58.92
59194;BME280;44967;48.598;15.650;2022-10-31T07:50:31;98802.97;;;13.99;57.31
59194;BME280;44967;48.598;15.650;2022-10-31T07:53:07;98798.00;;;14.08;58.70
59194;BME280;44967;48.598;15.650;2022-10-31T07:55:34;98801.34;;;14.21;57.80
59194;BME280;44967;48.598;15.650;2022-10-31T07:58:12;98803.97;;;14.14;58.43
59194;BME280;44967;48.598;15.650;2022-10-31T08:00:40;98797.69;;;14.13;57.94
59194;BME280;44967;48.598;15.650;2022-10-31T08:03:11;98792.28;;;14.21;58.46
59194;BME280;44967;48.598;15.650;2022-10-31T08:05:37;98810.16;;;14.34;57.79
59194;BME280;44967;48.598;15.650;2022-10-31T08:08:04;98802.03;;;14.42;57.91
59194;BME280;44967;48.598;15.650;2022-10-31T08:10:30;98795.19;;;14.32;57.70
59194;BME280;44967;48.598;15.650;2022-10-31T08:13:03;98804.72;;;14.38;58.31
59194;BME280;44967;48.598;15.650;2022-10-31T08:15:30;98801.31;;;14.48;58.04
59194;BME280;44967;48.598;15.650;2022-10-31T08:17:56;98807.72;;;14.56;56.79
59194;BME280;44967;48.598;15.650;2022-10-31T08:20:22;98803.88;;;14.34;58.73
59194;BME280;44967;48.598;15.650;2022-10-31T08:22:58;98794.72;;;13.99;58.29
59194;BME280;44967;48.598;15.650;2022-10-31T08:25:25;98808.69;;;14.40;58.36
59194;BME280;44967;48.598;15.650;2022-10-31T08:27:53;98799.03;;;14.50;59.34
59194;BME280;44967;48.598;15.650;2022-10-31T08:30:24;98813.38;;;14.67;59.40
59194;BME280;44967;48.598;15.650;2022-10-31T08:33:03;98817.50;;;14.80;58.82
59194;BME280;44967;48.598;15.650;2022-10-31T08:35:30;98823.47;;;14.86;57.82
59194;BME280;44967;48.598;15.650;2022-10-31T08:37:56;98802.25;;;14.87;58.35
59194;BME280;44967;48.598;15.650;2022-10-31T08:40:23;98792.28;;;14.75;58.25
59194;BME280;44967;48.598;15.650;2022-10-31T08:43:00;98789.00;;;14.96;58.07
59194;BME280;44967;48.598;15.650;2022-10-31T08:45:27;98789.19;;;14.76;58.27
59194;BME280;44967;48.598;15.650;2022-10-31T08:48:01;98786.31;;;15.00;57.51
59194;BME280;44967;48.598;15.650;2022-10-31T08:50:28;98806.03;;;15.05;57.68
59194;BME280;44967;48.598;15.650;2022-10-31T08:53:00;98785.97;;;15.05;55.63
59194;BME280;44967;48.598;15.650;2022-10-31T08:55:25;98787.97;;;15.04;57.24
59194;BME280;44967;48.598;15.650;2022-10-31T08:57:55;98790.31;;;15.06;57.22
59194;BME280;44967;48.598;15.650;2022-10-31T09:00:21;98808.53;;;15.18;56.85
59194;BME280;44967;48.598;15.650;2022-10-31T09:02:46;98804.72;;;15.30;56.26
59194;BME280;44967;48.598;15.650;2022-10-31T09:05:12;98787.47;;;15.33;57.54
59194;BME280;44967;48.598;15.650;2022-10-31T09:07:38;98785.28;;;15.49;56.86
59194;BME280;44967;48.598;15.650;2022-10-31T09:10:04;98798.53;;;15.78;55.73
59194;BME280;44967;48.598;15.650;2022-10-31T09:12:30;98797.03;;;15.88;55.91
59194;BME280;44967;48.598;15.650;2022-10-31T09:14:55;98786.72;;;15.81;56.20
59194;BME280;44967;48.598;15.650;2022-10-31T09:17:21;98783.09;;;15.70;57.33
59194;BME280;44967;48.598;15.650;2022-10-31T09:19:47;98772.81;;;15.63;56.40
59194;BME280;44967;48.598;15.650;2022-10-31T09:22:12;98796.13;;;15.76;56.45
59194;BME280;44967;48.598;15.650;2022-10-31T09:24:39;98782.09;;;15.89;55.84
59194;BME280;44967;48.598;15.650;2022-10-31T09:27:04;98786.63;;;15.70;56.80
59194;BME280;44967;48.598;15.650;2022-10-31T09:29:30;98776.84;;;15.76;56.90
59194;BME280;44967;48.598;15.650;2022-10-31T09:31:56;98771.22;;;16.03;55.84
59194;BME280;44967;48.598;15.650;2022-10-31T09:34:22;98798.47;;;16.20;55.89
59194;BME280;44967;48.598;15.650;2022-10-31T09:36:48;98782.72;;;16.16;55.72
59194;BME280;44967;48.598;15.650;2022-10-31T09:39:14;98778.34;;;16.08;55.05
59194;BME280;44967;48.598;15.650;2022-10-31T09:41:53;98786.03;;;15.88;55.24
59194;BME280;44967;48.598;15.650;2022-10-31T09:44:33;98782.09;;;15.89;56.62
59194;BME280;44967;48.598;15.650;2022-10-31T09:47:10;98800.88;;;16.25;56.02
59194;BME280;44967;48.598;15.650;2022-10-31T09:52:29;98771.38;;;16.29;55.25
59194;BME280;44967;48.598;15.650;2022-10-31T09:55:03;98804.63;;;16.58;55.69
59194;BME280;44967;48.598;15.650;2022-10-31T09:57:33;98780.84;;;16.35;56.19
59194;BME280;44967;48.598;15.650;2022-10-31T10:00:00;98762.31;;;16.28;54.49
59194;BME280;44967;48.598;15.650;2022-10-31T10:02:29;98794.97;;;16.23;54.15
59194;BME280;44967;48.598;15.650;2022-10-31T10:04:59;98776.28;;;15.56;57.01
59194;BME280;44967;48.598;15.650;2022-10-31T10:10:25;98792.59;;;16.21;56.11
59194;BME280;44967;48.598;15.650;2022-10-31T10:21:49;98796.63;;;17.09;54.27
59194;BME280;44967;48.598;15.650;2022-10-31T10:27:36;98783.63;;;17.17;53.74
59194;BME280;44967;48.598;15.650;2022-10-31T10:30:13;98782.09;;;17.34;54.30
59194;BME280;44967;48.598;15.650;2022-10-31T10:32:43;98767.84;;;17.13;55.09
59194;BME280;44967;48.598;15.650;2022-10-31T10:35:20;98760.69;;;16.94;54.56
59194;BME280;44967;48.598;15.650;2022-10-31T10:37:50;98755.22;;;17.05;54.52
59194;BME280;44967;48.598;15.650;2022-10-31T10:40:22;98773.84;;;17.41;54.75
59194;BME280;44967;48.598;15.650;2022-10-31T10:42:56;98760.34;;;17.14;54.90
59194;BME280;44967;48.598;15.650;2022-10-31T10:45:46;98747.00;;;17.23;54.59
59194;BME280;44967;48.598;15.650;2022-10-31T10:48:42;98769.91;;;17.46;55.52
59194;BME280;44967;48.598;15.650;2022-10-31T10:51:19;98758.03;;;17.34;54.34
59194;BME280;44967;48.598;15.650;2022-10-31T10:59:30;98747.03;;;17.89;54.19
59194;BME280;44967;48.598;15.650;2022-10-31T11:01:58;98738.72;;;18.29;52.89
59194;BME280;44967;48.598;15.650;2022-10-31T11:04:35;98724.13;;;18.17;53.62
59194;BME280;44967;48.598;15.650;2022-10-31T11:09:28;98728.47;;;18.18;53.29
59194;BME280;44967;48.598;15.650;2022-10-31T11:11:55;98735.53;;;18.38;52.04
59194;BME280;44967;48.598;15.650;2022-10-31T11:14:22;98734.34;;;18.39;52.94
59194;BME280;44967;48.598;15.650;2022-10-31T11:16:52;98723.69;;;18.37;52.39
59194;BME280;44967;48.598;15.650;2022-10-31T11:21:47;98750.56;;;18.29;53.00
59194;BME280;44967;48.598;15.650;2022-10-31T11:24:18;98735.19;;;18.17;52.65
59194;BME280;44967;48.598;15.650;2022-10-31T11:26:47;98721.75;;;18.23;52.92
59194;BME280;44967;48.598;15.650;2022-10-31T11:29:24;98743.81;;;18.45;53.59
59194;BME280;44967;48.598;15.650;2022-10-31T11:31:52;98728.41;;;18.40;53.55
59194;BME280;44967;48.598;15.650;2022-10-31T11:34:32;98717.34;;;18.40;53.06
59194;BME280;44967;48.598;15.650;2022-10-31T11:37:22;98731.16;;;18.47;53.19
59194;BME280;44967;48.598;15.650;2022-10-31T11:39:52;98722.06;;;18.47;53.41
59194;BME280;44967;48.598;15.650;2022-10-31T11:42:24;98716.53;;;18.47;53.10
59194;BME280;44967;48.598;15.650;2022-10-31T11:44:52;98722.47;;;18.49;52.96
59194;BME280;44967;48.598;15.650;2022-10-31T11:47:25;98719.78;;;18.23;53.81
59194;BME280;44967;48.598;15.650;2022-10-31T11:49:52;98712.31;;;18.09;54.54
59194;BME280;44967;48.598;15.650;2022-10-31T11:52:26;98716.63;;;18.14;53.82
59194;BME280;44967;48.598;15.650;2022-10-31T11:54:58;98703.97;;;18.24;54.37
59194;BME280;44967;48.598;15.650;2022-10-31T11:57:43;98705.94;;;18.27;54.09
59194;BME280;44967;48.598;15.650;2022-10-31T12:02:45;98714.97;;;18.42;54.04
59194;BME280;44967;48.598;15.650;2022-10-31T12:05:18;98701.97;;;18.35;53.92
59194;BME280;44967;48.598;15.650;2022-10-31T12:07:48;98694.44;;;18.32;54.42
59194;BME280;44967;48.598;15.650;2022-10-31T12:10:14;98698.06;;;18.07;55.22
59194;BME280;44967;48.598;15.650;2022-10-31T12:13:28;98712.63;;;18.41;53.78
59194;BME280;44967;48.598;15.650;2022-10-31T12:16:02;98691.34;;;18.16;54.60
59194;BME280;44967;48.598;15.650;2022-10-31T12:18:42;98707.13;;;18.30;54.87
59194;BME280;44967;48.598;15.650;2022-10-31T12:29:45;98707.88;;;18.41;55.40
59194;BME280;44967;48.598;15.650;2022-10-31T12:45:55;98670.41;;;18.22;54.75
59194;BME280;44967;48.598;15.650;2022-10-31T12:49:07;98678.72;;;18.18;55.83
59194;BME280;44967;48.598;15.650;2022-10-31T12:51:54;98665.31;;;17.99;56.57
59194;BME280;44967;48.598;15.650;2022-10-31T12:57:13;98664.94;;;17.86;56.54
59194;BME280;44967;48.598;15.650;2022-10-31T12:59:47;98667.66;;;17.96;55.72
59194;BME280;44967;48.598;15.650;2022-10-31T13:04:55;98666.91;;;17.81;56.36
59194;BME280;44967;48.598;15.650;2022-10-31T13:07:30;98674.03;;;17.82;56.43
59194;BME280;44967;48.598;15.650;2022-10-31T13:10:07;98684.69;;;17.66;57.11
59194;BME280;44967;48.598;15.650;2022-10-31T13:12:36;98651.94;;;17.61;55.87
59194;BME280;44967;48.598;15.650;2022-10-31T13:15:15;98668.50;;;17.82;56.79
59194;BME280;44967;48.598;15.650;2022-10-31T13:18:04;98670.06;;;17.84;55.63
59194;BME280;44967;48.598;15.650;2022-10-31T13:20:40;98668.50;;;17.75;57.03
59194;BME280;44967;48.598;15.650;2022-10-31T13:23:16;98659.06;;;17.54;57.04
59194;BME280;44967;48.598;15.650;2022-10-31T13:25:49;98668.50;;;17.68;55.85
59194;BME280;44967;48.598;15.650;2022-10-31T13:31:00;98657.06;;;17.59;56.71
59194;BME280;44967;48.598;15.650;2022-10-31T13:33:35;98653.94;;;17.57;56.61
59194;BME280;44967;48.598;15.650;2022-10-31T13:36:19;98668.13;;;17.51;56.08
59194;BME280;44967;48.598;15.650;2022-10-31T13:38:52;98651.16;;;17.31;56.46
59194;BME280;44967;48.598;15.650;2022-10-31T13:41:46;98665.16;;;16.50;59.90
59194;BME280;44967;48.598;15.650;2022-10-31T13:44:20;98648.81;;;17.11;58.07
59194;BME280;44967;48.598;15.650;2022-10-31T13:46:47;98645.66;;;17.24;57.45
59194;BME280;44967;48.598;15.650;2022-10-31T13:52:12;98663.78;;;17.36;57.28
59194;BME280;44967;48.598;15.650;2022-10-31T13:54:49;98646.03;;;17.33;56.18
59194;BME280;44967;48.598;15.650;2022-10-31T14:00:21;98638.16;;;17.24;56.60
59194;BME280;44967;48.598;15.650;2022-10-31T14:02:51;98623.56;;;17.31;55.83
59194;BME280;44967;48.598;15.650;2022-10-31T14:05:29;98649.97;;;17.21;56.21
59194;BME280;44967;48.598;15.650;2022-10-31T14:07:56;98643.69;;;17.32;57.28
59194;BME280;44967;48.598;15.650;2022-10-31T14:10:33;98665.38;;;17.51;57.14
59194;BME280;44967;48.598;15.650;2022-10-31T14:13:41;98666.16;;;17.34;57.44
59194;BME280;44967;48.598;15.650;2022-10-31T14:15:59;98661.81;;;17.36;56.36
59194;BME280;44967;48.598;15.650;2022-10-31T14:18:34;98648.78;;;17.37;57.35
59194;BME280;44967;48.598;15.650;2022-10-31T14:21:01;98634.22;;;17.36;56.89
59194;BME280;44967;48.598;15.650;2022-10-31T14:28:34;98635.00;;;17.26;57.34
59194;BME280;44967;48.598;15.650;2022-10-31T14:31:01;98644.47;;;17.39;57.21
59194;BME280;44967;48.598;15.650;2022-10-31T14:33:28;98627.13;;;17.32;56.92
59194;BME280;44967;48.598;15.650;2022-10-31T14:36:06;98634.22;;;17.25;57.43
59194;BME280;44967;48.598;15.650;2022-10-31T14:49:55;98638.56;;;17.26;57.53
59194;BME280;44967;48.598;15.650;2022-10-31T14:52:23;98619.22;;;17.19;58.12